Time;durP1;ratioP1;P1;durP2;ratioP2;P2;SDS_P1;SDS_P2;PMS_P1;PMS_P2;Temp;Humidity;BMP_temperature;BMP_pressure;BME280_temperature;BME280_humidity;BME280_pressure;Samples;Min_cycle;Max_cycle;Signal;HPM_P1;HPM_P2
2023/01/19 07:20:21;;;;;;;;;;;;;;;9.74;100.00;100197.66;109329;1260;83936;-93
2023/01/19 12:07:17;;;;;;;16.90;4.60;;;;;;;10.88;100.00;100059.36;105777;1291;601078;-91
2023/01/19 12:10:26;;;;;;;19.80;7.00;;;;;;;11.29;100.00;100059.08;107957;1269;62623;-91
2023/01/19 12:13:21;;;;;;;25.90;10.40;;;;;;;11.77;100.00;100055.95;108576;1263;61284;-94
2023/01/19 12:16:22;;;;;;;15.20;6.90;;;;;;;12.04;100.00;100055.55;108929;1256;71413;-93
2023/01/19 12:19:13;;;;;;;12.20;4.00;;;;;;;12.24;100.00;100055.34;108889;1257;70619;-93
2023/01/19 12:22:02;;;;;;;14.10;6.10;;;;;;;12.38;100.00;100051.95;108957;1254;202473;-92
2023/01/19 12:25:09;;;;;;;16.70;7.30;;;;;;;12.53;100.00;100051.39;108937;1257;62974;-92
2023/01/19 12:27:58;;;;;;;12.90;4.90;;;;;;;12.60;100.00;100057.70;109038;1253;61533;-93
2023/01/19 12:30:46;;;;;;;15.00;5.30;;;;;;;12.70;100.00;100056.27;108999;1254;74665;-93
2023/01/19 12:33:37;;;;;;;12.30;3.80;;;;;;;12.71;100.00;100060.20;109031;1254;71176;-93
2023/01/19 12:36:28;;;;;;;34.30;15.80;;;;;;;12.70;100.00;100057.64;108982;1254;75073;-93
2023/01/19 12:39:19;;;;;;;27.80;15.30;;;;;;;12.69;100.00;100053.98;109087;1257;62651;-94
2023/01/19 12:42:18;;;;;;;25.50;15.70;;;;;;;12.69;100.00;100060.40;109198;1254;60464;-94
2023/01/19 12:45:12;;;;;;;14.10;6.40;;;;;;;12.65;100.00;100061.45;109184;1257;75467;-93
2023/01/19 12:48:10;;;;;;;9.10;4.60;;;;;;;12.63;100.00;100063.65;109042;1260;70830;-92
2023/01/19 12:50:58;;;;;;;10.40;4.60;;;;;;;12.64;100.00;100058.63;109038;1257;74881;-93
2023/01/19 12:53:54;;;;;;;14.10;3.80;;;;;;;12.66;100.00;100055.79;108931;1255;62852;-94
2023/01/19 12:56:42;;;;;;;9.40;3.80;;;;;;;12.68;100.00;100061.29;108973;1254;61924;-93
2023/01/19 12:59:32;;;;;;;15.00;4.90;;;;;;;12.72;100.00;100061.27;109090;1259;74761;-94
2023/01/19 13:02:22;;;;;;;12.90;5.90;;;;;;;12.74;100.00;100061.08;108963;1255;69276;-92
2023/01/19 13:05:11;;;;;;;17.50;7.50;;;;;;;12.75;100.00;100061.09;108983;1254;74719;-92
2023/01/19 13:08:02;;;;;;;27.30;10.20;;;;;;;12.76;100.00;100065.04;109213;1259;62831;-92
2023/01/19 13:10:59;;;;;;;16.70;7.50;;;;;;;12.75;100.00;100065.48;109268;1254;61167;-93
2023/01/19 13:13:47;;;;;;;38.50;14.10;;;;;;;12.73;100.00;100069.20;109255;1253;74403;-91
2023/01/19 13:16:37;;;;;;;25.20;8.20;;;;;;;12.77;100.00;100058.31;109124;1254;71104;-92
2023/01/19 13:19:36;;;;;;;27.50;8.80;;;;;;;12.87;100.00;100056.93;109085;1254;75281;-92
2023/01/19 13:23:13;;;;;;;25.30;8.10;;;;;;;12.86;100.00;100054.42;109026;1254;62403;-91
2023/01/19 13:26:04;;;;;;;31.40;10.80;;;;;;;12.82;100.00;100051.48;109185;1254;61151;-92
2023/01/19 13:28:56;;;;;;;19.60;7.00;;;;;;;12.78;100.00;100048.94;108951;1260;74220;-92
2023/01/19 13:31:47;;;;;;;48.20;18.80;;;;;;;12.80;100.00;100051.48;109177;1253;70444;-93
2023/01/19 13:34:47;;;;;;;9.60;4.50;;;;;;;12.80;100.00;100055.64;109042;1257;74476;-92
2023/01/19 13:37:47;;;;;;;21.30;7.50;;;;;;;12.74;100.00;100051.52;109168;1259;60725;-92
2023/01/19 13:40:43;;;;;;;25.20;7.90;;;;;;;12.72;100.00;100051.89;109284;1252;60842;-94
2023/01/19 13:43:35;;;;;;;20.10;6.90;;;;;;;12.68;100.00;100053.06;109058;1259;73388;-91
2023/01/19 13:46:27;;;;;;;25.00;6.50;;;;;;;12.68;100.00;100053.93;109163;1254;69929;-92
2023/01/19 13:49:20;;;;;;;23.50;6.60;;;;;;;12.64;100.00;100053.80;109074;1253;73513;-92
2023/01/19 13:52:16;;;;;;;31.00;10.30;;;;;;;12.56;100.00;100053.41;109096;1254;61904;-93
2023/01/19 13:55:11;;;;;;;14.30;4.90;;;;;;;12.43;100.00;100050.16;109045;1254;61088;-93
2023/01/19 13:57:59;;;;;;;11.70;4.00;;;;;;;12.57;100.00;100054.05;108962;1256;74003;-91
2023/01/19 18:06:49;;;;;;;12.90;4.50;;;;;;;9.06;100.00;100152.50;105396;1292;600081;-92
2023/01/19 18:09:37;;;;;;;11.40;3.80;;;;;;;9.10;100.00;100159.05;108521;1267;63368;-93
2023/01/19 18:12:24;;;;;;;13.60;3.60;;;;;;;9.19;100.00;100160.11;108247;1267;62379;-92
2023/01/19 18:15:12;;;;;;;15.60;3.60;;;;;;;9.27;100.00;100158.17;108145;1267;72535;-93
2023/01/19 18:18:03;;;;;;;13.00;3.40;;;;;;;9.34;100.00;100153.03;108538;1262;70368;-94
2023/01/19 18:20:50;;;;;;;10.90;3.20;;;;;;;9.48;100.00;100153.19;108563;1260;165680;-92
2023/01/19 18:23:39;;;;;;;14.00;4.20;;;;;;;9.66;100.00;100148.36;108900;1261;61882;-94
2023/01/19 18:26:27;;;;;;;9.50;4.00;;;;;;;9.80;100.00;100147.69;108754;1260;61501;-92
2023/01/19 18:29:18;;;;;;;12.20;3.60;;;;;;;9.87;100.00;100143.17;108741;1260;73606;-91
2023/01/19 18:32:06;;;;;;;9.60;3.20;;;;;;;9.86;100.00;100147.05;108747;1260;71176;-92
2023/01/19 18:34:54;;;;;;;10.50;3.50;;;;;;;9.88;100.00;100148.73;108796;1260;73582;-93
2023/01/19 18:37:42;;;;;;;8.80;2.90;;;;;;;9.90;100.00;100147.95;108799;1260;62295;-92
2023/01/19 18:40:30;;;;;;;7.30;2.90;;;;;;;9.94;100.00;100147.23;108843;1260;62463;-93
2023/01/19 18:43:25;;;;;;;11.50;3.60;;;;;;;9.98;100.00;100150.95;108764;1260;75056;-94
2023/01/19 18:46:13;;;;;;;14.80;3.30;;;;;;;9.97;100.00;100150.70;108768;1257;71030;-91
2023/01/19 18:49:02;;;;;;;7.50;2.40;;;;;;;9.97;100.00;100159.71;108702;1260;75199;-91
2023/01/19 18:51:55;;;;;;;10.20;3.60;;;;;;;9.98;100.00;100158.99;108831;1259;61608;-94
2023/01/19 18:54:43;;;;;;;10.10;2.80;;;;;;;9.97;100.00;100164.90;108676;1259;62650;-93
2023/01/19 18:57:34;;;;;;;10.80;3.60;;;;;;;9.94;100.00;100163.98;108654;1261;74667;-92
2023/01/19 19:00:23;;;;;;;6.40;2.90;;;;;;;9.91;100.00;100165.20;108720;1259;70190;-93
2023/01/19 19:03:10;;;;;;;15.00;3.20;;;;;;;9.86;100.00;100166.03;108697;1259;74596;-94
2023/01/19 19:06:02;;;;;;;10.00;3.00;;;;;;;9.87;100.00;100173.56;108744;1259;64072;-91
2023/01/19 19:08:50;;;;;;;10.90;3.40;;;;;;;9.95;100.00;100175.17;108730;1259;61295;-92
2023/01/19 19:11:38;;;;;;;10.30;3.40;;;;;;;9.91;100.00;100173.06;108669;1259;75279;-93
2023/01/19 19:14:25;;;;;;;15.40;3.50;;;;;;;9.89;100.00;100174.61;108747;1260;69140;-91
2023/01/19 19:17:13;;;;;;;8.90;2.80;;;;;;;9.95;100.00;100177.57;108786;1261;74684;-93
2023/01/19 19:20:01;;;;;;;15.20;3.10;;;;;;;9.94;100.00;100172.34;109103;1254;62057;-92
2023/01/19 19:22:50;;;;;;;12.80;3.20;;;;;;;9.91;100.00;100176.34;109102;1254;61533;-91
2023/01/19 19:25:38;;;;;;;16.40;3.60;;;;;;;9.89;100.00;100186.51;109106;1254;74756;-91
2023/01/19 19:28:26;;;;;;;6.80;3.20;;;;;;;9.86;100.00;100187.16;109132;1254;68293;-95
2023/01/19 19:31:15;;;;;;;12.40;3.00;;;;;;;9.84;100.00;100182.48;109241;1256;74426;-91
2023/01/19 19:34:03;;;;;;;14.10;3.40;;;;;;;9.84;100.00;100191.05;109130;1254;60162;-93
2023/01/19 19:36:51;;;;;;;12.50;3.50;;;;;;;9.85;100.00;100191.65;109051;1253;61665;-94
2023/01/19 19:39:40;;;;;;;6.80;3.10;;;;;;;9.85;100.00;100197.55;109011;1254;75509;-91
2023/01/19 19:42:28;;;;;;;9.50;3.30;;;;;;;9.92;100.00;100199.48;109233;1254;70369;-94
2023/01/19 19:45:16;;;;;;;12.30;3.40;;;;;;;9.98;100.00;100206.54;109121;1254;74752;-95
2023/01/19 19:48:05;;;;;;;10.20;3.90;;;;;;;9.97;100.00;100210.75;109044;1254;63862;-92
2023/01/19 19:50:53;;;;;;;8.20;3.00;;;;;;;10.00;100.00;100216.15;109144;1254;61086;-93
2023/01/19 19:53:41;;;;;;;12.00;3.20;;;;;;;10.04;100.00;100217.31;109085;1254;74825;-93
2023/01/19 19:56:30;;;;;;;14.70;3.90;;;;;;;10.14;100.00;100205.46;109169;1254;70798;-90
2023/01/19 19:59:18;;;;;;;11.30;3.60;;;;;;;10.25;100.00;100206.66;108986;1256;74798;-92
2023/01/19 22:04:30;;;;;;;12.40;4.40;;;;;;;7.49;100.00;100265.91;106121;1289;599666;-93
2023/01/19 22:07:37;;;;;;;12.80;4.80;;;;;;;7.48;100.00;100256.39;108459;1268;62265;-94
2023/01/19 22:10:29;;;;;;;7.50;3.30;;;;;;;7.55;100.00;100261.48;108793;1260;62518;-95
2023/01/19 22:13:17;;;;;;;10.90;3.70;;;;;;;7.61;100.00;100261.79;108698;1260;74754;-93
2023/01/19 22:16:07;;;;;;;12.60;3.10;;;;;;;7.63;100.00;100259.02;108748;1258;70799;-96
2023/01/19 22:19:20;;;;;;;12.60;4.60;;;;;;;7.71;100.00;100262.05;109173;1253;218045;-94
2023/01/19 22:22:10;;;;;;;11.60;3.80;;;;;;;7.79;100.00;100278.58;109285;1251;60792;-91
2023/01/19 22:24:57;;;;;;;13.60;3.50;;;;;;;7.86;100.00;100279.09;109250;1252;61252;-89
2023/01/19 22:27:45;;;;;;;11.00;3.20;;;;;;;7.94;100.00;100281.20;109313;1253;72970;-92
2023/01/19 22:30:33;;;;;;;11.80;3.70;;;;;;;8.06;100.00;100277.65;109374;1253;70805;-92
2023/01/19 22:33:21;;;;;;;12.00;3.30;;;;;;;8.14;100.00;100287.20;109287;1254;75246;-92
2023/01/19 22:36:14;;;;;;;12.00;3.50;;;;;;;8.25;100.00;100285.00;109076;1252;62862;-92
2023/01/19 22:39:05;;;;;;;7.10;3.10;;;;;;;8.32;100.00;100278.22;109140;1253;61888;-92
2023/01/19 22:41:58;;;;;;;16.90;3.40;;;;;;;8.37;100.00;100276.00;109330;1254;74456;-91
2023/01/19 22:44:49;;;;;;;10.70;2.70;;;;;;;8.40;100.00;100282.56;109304;1253;68741;-91
2023/01/19 22:47:38;;;;;;;10.70;3.20;;;;;;;8.43;100.00;100279.96;109070;1253;73799;-91
2023/01/19 22:50:25;;;;;;;9.60;3.10;;;;;;;8.48;100.00;100277.90;109181;1253;61645;-91
2023/01/19 22:53:15;;;;;;;11.30;3.40;;;;;;;8.48;100.00;100281.55;109145;1254;61432;-89
2023/01/19 22:56:29;;;;;;;11.60;3.40;;;;;;;8.48;100.00;100274.27;109169;1256;75286;-94
2023/01/19 22:59:22;;;;;;;8.80;3.20;;;;;;;8.55;100.00;100280.48;109085;1253;69526;-94
2023/01/19 23:02:16;;;;;;;8.90;3.30;;;;;;;8.56;100.00;100287.89;109176;1253;74682;-92
2023/01/19 23:05:11;;;;;;;6.40;2.70;;;;;;;8.58;100.00;100286.05;109037;1254;64658;-91
2023/01/19 23:08:00;;;;;;;7.80;2.80;;;;;;;8.64;100.00;100281.63;109091;1253;62267;-93
2023/01/19 23:10:48;;;;;;;9.50;3.80;;;;;;;8.66;100.00;100284.20;109147;1253;74567;-92
2023/01/19 23:13:43;;;;;;;12.30;3.70;;;;;;;8.72;100.00;100286.17;109157;1254;70712;-93
2023/01/19 23:16:35;;;;;;;6.90;3.20;;;;;;;8.78;100.00;100294.29;109027;1254;74752;-93
2023/01/19 23:19:26;;;;;;;6.90;3.10;;;;;;;8.68;100.00;100296.35;109126;1254;60618;-93
2023/01/19 23:22:14;;;;;;;14.10;3.50;;;;;;;8.68;100.00;100298.73;108944;1254;60944;-92
2023/01/19 23:25:06;;;;;;;8.80;3.00;;;;;;;8.72;100.00;100301.42;109141;1254;74886;-91
2023/01/19 23:27:54;;;;;;;7.10;3.50;;;;;;;8.76;100.00;100302.35;109171;1254;70879;-93
2023/01/19 23:30:42;;;;;;;9.10;2.80;;;;;;;8.80;100.00;100304.91;109176;1254;73011;-93
2023/01/19 23:33:30;;;;;;;10.00;3.50;;;;;;;8.70;100.00;100304.73;109073;1254;63975;-93
2023/01/19 23:36:20;;;;;;;9.90;3.10;;;;;;;8.70;100.00;100299.02;109153;1254;62510;-91
2023/01/19 23:39:14;;;;;;;6.80;3.00;;;;;;;8.70;100.00;100299.84;108979;1252;73204;-90
2023/01/19 23:42:03;;;;;;;10.70;4.00;;;;;;;8.68;100.00;100296.69;109080;1254;69640;-92
2023/01/19 23:44:51;;;;;;;12.50;4.90;;;;;;;8.69;100.00;100298.86;109254;1254;74622;-92
2023/01/19 23:47:42;;;;;;;9.50;4.30;;;;;;;8.69;100.00;100302.95;109244;1254;62239;-93
2023/01/19 23:50:37;;;;;;;12.50;4.40;;;;;;;8.71;100.00;100310.08;109094;1253;61508;-93
2023/01/19 23:53:28;;;;;;;12.10;3.60;;;;;;;8.70;100.00;100313.83;109131;1254;73927;-93
2023/01/19 23:56:28;;;;;;;10.20;4.10;;;;;;;8.72;100.00;100323.10;109093;1254;70716;-93
2023/01/19 23:59:17;;;;;;;10.20;4.60;;;;;;;8.78;100.00;100332.88;108976;1254;73682;-92
